sensor_id;sensor_type;location;lat;lon;timestamp;P1;durP1;ratioP1;P2;durP2;ratioP2
54641;SDS011;40536;53.194;5.728;2023-02-15T00:01:08;367.42;;;48.75;;
54641;SDS011;40536;53.194;5.728;2023-02-15T00:03:35;40.15;;;36.22;;
54641;SDS011;40536;53.194;5.728;2023-02-15T00:06:01;93.63;;;41.90;;
54641;SDS011;40536;53.194;5.728;2023-02-15T00:08:27;76.05;;;41.90;;
54641;SDS011;40536;53.194;5.728;2023-02-15T00:10:53;142.20;;;45.95;;
54641;SDS011;40536;53.194;5.728;2023-02-15T00:13:28;233.25;;;46.40;;
54641;SDS011;40536;53.194;5.728;2023-02-15T00:15:54;112.18;;;43.45;;
54641;SDS011;40536;53.194;5.728;2023-02-15T00:18:24;173.05;;;45.63;;
54641;SDS011;40536;53.194;5.728;2023-02-15T00:20:50;330.45;;;49.58;;
54641;SDS011;40536;53.194;5.728;2023-02-15T00:23:16;340.45;;;51.25;;
54641;SDS011;40536;53.194;5.728;2023-02-15T00:25:41;333.30;;;48.72;;
54641;SDS011;40536;53.194;5.728;2023-02-15T00:28:07;334.75;;;48.08;;
54641;SDS011;40536;53.194;5.728;2023-02-15T00:30:32;203.25;;;43.05;;
54641;SDS011;40536;53.194;5.728;2023-02-15T00:32:58;373.35;;;50.60;;
54641;SDS011;40536;53.194;5.728;2023-02-15T00:35:24;416.20;;;51.50;;
54641;SDS011;40536;53.194;5.728;2023-02-15T00:37:49;160.40;;;41.85;;
54641;SDS011;40536;53.194;5.728;2023-02-15T00:40:15;349.25;;;46.20;;
54641;SDS011;40536;53.194;5.728;2023-02-15T00:42:40;47.83;;;35.97;;
54641;SDS011;40536;53.194;5.728;2023-02-15T00:45:06;96.30;;;36.30;;
54641;SDS011;40536;53.194;5.728;2023-02-15T00:47:32;82.70;;;37.70;;
54641;SDS011;40536;53.194;5.728;2023-02-15T00:49:58;258.75;;;45.92;;
54641;SDS011;40536;53.194;5.728;2023-02-15T00:52:23;40.92;;;36.90;;
54641;SDS011;40536;53.194;5.728;2023-02-15T00:54:49;63.13;;;37.80;;
54641;SDS011;40536;53.194;5.728;2023-02-15T00:57:15;135.70;;;39.70;;
54641;SDS011;40536;53.194;5.728;2023-02-15T00:59:40;39.55;;;35.78;;
54641;SDS011;40536;53.194;5.728;2023-02-15T01:02:06;77.88;;;36.47;;
54641;SDS011;40536;53.194;5.728;2023-02-15T01:04:31;41.92;;;34.67;;
54641;SDS011;40536;53.194;5.728;2023-02-15T01:06:57;60.83;;;37.83;;
54641;SDS011;40536;53.194;5.728;2023-02-15T01:09:23;86.18;;;39.75;;
54641;SDS011;40536;53.194;5.728;2023-02-15T01:11:48;71.10;;;38.70;;
54641;SDS011;40536;53.194;5.728;2023-02-15T01:14:14;109.88;;;35.63;;
54641;SDS011;40536;53.194;5.728;2023-02-15T01:16:40;101.85;;;36.78;;
54641;SDS011;40536;53.194;5.728;2023-02-15T01:19:05;64.90;;;37.15;;
54641;SDS011;40536;53.194;5.728;2023-02-15T01:21:31;56.63;;;36.80;;
54641;SDS011;40536;53.194;5.728;2023-02-15T01:23:59;43.13;;;33.72;;
54641;SDS011;40536;53.194;5.728;2023-02-15T01:26:25;61.70;;;35.28;;
54641;SDS011;40536;53.194;5.728;2023-02-15T01:28:51;184.73;;;38.42;;
54641;SDS011;40536;53.194;5.728;2023-02-15T01:31:18;154.63;;;36.60;;
54641;SDS011;40536;53.194;5.728;2023-02-15T01:33:46;94.10;;;35.78;;
54641;SDS011;40536;53.194;5.728;2023-02-15T01:36:12;150.23;;;34.70;;
54641;SDS011;40536;53.194;5.728;2023-02-15T01:38:39;201.77;;;36.30;;
54641;SDS011;40536;53.194;5.728;2023-02-15T01:41:05;180.70;;;38.25;;
54641;SDS011;40536;53.194;5.728;2023-02-15T01:43:50;230.98;;;42.17;;
54641;SDS011;40536;53.194;5.728;2023-02-15T01:46:19;292.35;;;42.65;;
54641;SDS011;40536;53.194;5.728;2023-02-15T01:48:50;266.70;;;42.30;;
54641;SDS011;40536;53.194;5.728;2023-02-15T01:51:20;333.80;;;44.53;;
54641;SDS011;40536;53.194;5.728;2023-02-15T01:54:09;180.88;;;37.83;;
54641;SDS011;40536;53.194;5.728;2023-02-15T01:56:42;39.58;;;32.28;;
54641;SDS011;40536;53.194;5.728;2023-02-15T01:59:09;42.10;;;31.45;;
54641;SDS011;40536;53.194;5.728;2023-02-15T02:01:42;50.22;;;32.70;;
54641;SDS011;40536;53.194;5.728;2023-02-15T02:06:37;115.13;;;34.83;;
54641;SDS011;40536;53.194;5.728;2023-02-15T02:09:04;36.50;;;32.05;;
54641;SDS011;40536;53.194;5.728;2023-02-15T02:11:29;299.05;;;46.70;;
54641;SDS011;40536;53.194;5.728;2023-02-15T02:13:55;95.63;;;35.10;;
54641;SDS011;40536;53.194;5.728;2023-02-15T02:33:07;43.25;;;33.90;;
54641;SDS011;40536;53.194;5.728;2023-02-15T02:35:57;99.00;;;37.70;;
54641;SDS011;40536;53.194;5.728;2023-02-15T02:41:26;83.30;;;36.25;;
54641;SDS011;40536;53.194;5.728;2023-02-15T02:47:17;182.73;;;39.83;;
54641;SDS011;40536;53.194;5.728;2023-02-15T02:50:01;120.28;;;38.00;;
54641;SDS011;40536;53.194;5.728;2023-02-15T02:52:37;240.98;;;42.25;;
54641;SDS011;40536;53.194;5.728;2023-02-15T02:55:51;215.05;;;45.85;;
54641;SDS011;40536;53.194;5.728;2023-02-15T02:57:58;200.18;;;41.67;;
54641;SDS011;40536;53.194;5.728;2023-02-15T03:00:53;286.88;;;45.03;;
54641;SDS011;40536;53.194;5.728;2023-02-15T03:03:30;237.20;;;42.55;;
54641;SDS011;40536;53.194;5.728;2023-02-15T03:06:36;245.32;;;45.65;;
54641;SDS011;40536;53.194;5.728;2023-02-15T03:09:09;229.55;;;41.95;;
54641;SDS011;40536;53.194;5.728;2023-02-15T03:11:46;151.82;;;39.58;;
54641;SDS011;40536;53.194;5.728;2023-02-15T03:14:14;148.45;;;38.05;;
54641;SDS011;40536;53.194;5.728;2023-02-15T03:16:43;45.72;;;34.13;;
54641;SDS011;40536;53.194;5.728;2023-02-15T03:19:23;37.22;;;33.17;;
54641;SDS011;40536;53.194;5.728;2023-02-15T03:21:56;178.23;;;42.47;;
54641;SDS011;40536;53.194;5.728;2023-02-15T03:24:38;103.57;;;36.10;;
54641;SDS011;40536;53.194;5.728;2023-02-15T03:27:11;173.57;;;39.47;;
54641;SDS011;40536;53.194;5.728;2023-02-15T03:29:43;204.40;;;44.40;;
54641;SDS011;40536;53.194;5.728;2023-02-15T03:32:13;154.10;;;37.22;;
54641;SDS011;40536;53.194;5.728;2023-02-15T03:34:41;270.60;;;47.78;;
54641;SDS011;40536;53.194;5.728;2023-02-15T03:40:03;250.85;;;43.50;;
54641;SDS011;40536;53.194;5.728;2023-02-15T03:42:47;231.00;;;43.47;;
54641;SDS011;40536;53.194;5.728;2023-02-15T03:45:17;323.65;;;48.78;;
54641;SDS011;40536;53.194;5.728;2023-02-15T03:47:50;387.77;;;52.30;;
54641;SDS011;40536;53.194;5.728;2023-02-15T03:50:20;373.27;;;49.45;;
54641;SDS011;40536;53.194;5.728;2023-02-15T03:53:11;311.95;;;49.78;;
54641;SDS011;40536;53.194;5.728;2023-02-15T03:55:39;229.07;;;45.72;;
54641;SDS011;40536;53.194;5.728;2023-02-15T03:58:05;139.68;;;38.80;;
54641;SDS011;40536;53.194;5.728;2023-02-15T04:00:53;108.68;;;38.22;;
54641;SDS011;40536;53.194;5.728;2023-02-15T04:03:56;180.75;;;43.83;;
54641;SDS011;40536;53.194;5.728;2023-02-15T04:06:26;152.90;;;39.15;;
54641;SDS011;40536;53.194;5.728;2023-02-15T04:08:51;170.48;;;43.60;;
54641;SDS011;40536;53.194;5.728;2023-02-15T04:11:35;143.75;;;43.58;;
54641;SDS011;40536;53.194;5.728;2023-02-15T04:14:01;97.38;;;39.53;;
54641;SDS011;40536;53.194;5.728;2023-02-15T04:16:46;213.75;;;45.40;;
54641;SDS011;40536;53.194;5.728;2023-02-15T04:19:12;167.55;;;44.35;;
54641;SDS011;40536;53.194;5.728;2023-02-15T04:21:56;167.23;;;44.47;;
54641;SDS011;40536;53.194;5.728;2023-02-15T04:24:40;239.10;;;46.85;;
54641;SDS011;40536;53.194;5.728;2023-02-15T04:27:24;147.55;;;47.60;;
54641;SDS011;40536;53.194;5.728;2023-02-15T04:29:50;175.68;;;47.60;;
54641;SDS011;40536;53.194;5.728;2023-02-15T04:32:15;119.57;;;43.88;;
54641;SDS011;40536;53.194;5.728;2023-02-15T04:34:41;214.30;;;48.45;;
54641;SDS011;40536;53.194;5.728;2023-02-15T04:37:07;199.15;;;47.22;;
54641;SDS011;40536;53.194;5.728;2023-02-15T04:39:32;140.77;;;43.45;;
54641;SDS011;40536;53.194;5.728;2023-02-15T04:41:58;145.63;;;44.47;;
54641;SDS011;40536;53.194;5.728;2023-02-15T04:44:24;179.13;;;49.65;;
54641;SDS011;40536;53.194;5.728;2023-02-15T04:46:49;174.63;;;52.45;;
54641;SDS011;40536;53.194;5.728;2023-02-15T04:49:15;191.68;;;48.22;;
54641;SDS011;40536;53.194;5.728;2023-02-15T04:51:40;158.35;;;50.05;;
54641;SDS011;40536;53.194;5.728;2023-02-15T04:54:06;150.38;;;50.25;;
54641;SDS011;40536;53.194;5.728;2023-02-15T04:56:32;169.40;;;50.28;;
54641;SDS011;40536;53.194;5.728;2023-02-15T04:58:59;162.25;;;54.30;;
54641;SDS011;40536;53.194;5.728;2023-02-15T05:01:25;144.80;;;53.97;;
54641;SDS011;40536;53.194;5.728;2023-02-15T05:03:51;122.47;;;57.05;;
54641;SDS011;40536;53.194;5.728;2023-02-15T05:06:16;140.70;;;59.22;;
54641;SDS011;40536;53.194;5.728;2023-02-15T05:08:42;142.27;;;56.80;;
54641;SDS011;40536;53.194;5.728;2023-02-15T05:11:08;131.48;;;61.72;;
54641;SDS011;40536;53.194;5.728;2023-02-15T05:13:33;143.07;;;64.90;;
54641;SDS011;40536;53.194;5.728;2023-02-15T05:15:59;142.75;;;64.90;;
54641;SDS011;40536;53.194;5.728;2023-02-15T05:18:25;203.98;;;70.60;;
54641;SDS011;40536;53.194;5.728;2023-02-15T05:20:50;185.00;;;73.90;;
54641;SDS011;40536;53.194;5.728;2023-02-15T05:23:16;193.43;;;76.63;;
54641;SDS011;40536;53.194;5.728;2023-02-15T05:25:46;165.98;;;76.60;;
54641;SDS011;40536;53.194;5.728;2023-02-15T05:28:31;209.98;;;79.38;;
54641;SDS011;40536;53.194;5.728;2023-02-15T05:33:30;234.25;;;85.78;;
54641;SDS011;40536;53.194;5.728;2023-02-15T05:35:56;275.67;;;86.10;;
54641;SDS011;40536;53.194;5.728;2023-02-15T05:38:22;329.48;;;93.30;;
54641;SDS011;40536;53.194;5.728;2023-02-15T05:40:47;332.92;;;93.00;;
54641;SDS011;40536;53.194;5.728;2023-02-15T05:43:13;310.80;;;88.47;;
54641;SDS011;40536;53.194;5.728;2023-02-15T05:45:38;268.85;;;87.13;;
54641;SDS011;40536;53.194;5.728;2023-02-15T05:48:04;311.75;;;96.70;;
54641;SDS011;40536;53.194;5.728;2023-02-15T05:50:30;267.75;;;89.57;;
54641;SDS011;40536;53.194;5.728;2023-02-15T05:52:55;289.92;;;89.30;;
54641;SDS011;40536;53.194;5.728;2023-02-15T05:55:21;255.35;;;85.93;;
54641;SDS011;40536;53.194;5.728;2023-02-15T05:57:48;202.23;;;84.43;;
54641;SDS011;40536;53.194;5.728;2023-02-15T06:00:14;191.07;;;81.05;;
54641;SDS011;40536;53.194;5.728;2023-02-15T06:02:40;220.65;;;79.30;;
54641;SDS011;40536;53.194;5.728;2023-02-15T06:05:06;198.68;;;87.03;;
54641;SDS011;40536;53.194;5.728;2023-02-15T06:07:32;227.38;;;83.78;;
54641;SDS011;40536;53.194;5.728;2023-02-15T06:09:58;185.20;;;81.45;;
54641;SDS011;40536;53.194;5.728;2023-02-15T06:12:23;238.35;;;95.85;;
54641;SDS011;40536;53.194;5.728;2023-02-15T06:14:49;242.93;;;87.28;;
54641;SDS011;40536;53.194;5.728;2023-02-15T06:17:15;181.93;;;86.75;;
54641;SDS011;40536;53.194;5.728;2023-02-15T06:19:41;217.15;;;79.65;;
54641;SDS011;40536;53.194;5.728;2023-02-15T06:22:07;211.57;;;82.80;;
54641;SDS011;40536;53.194;5.728;2023-02-15T06:24:33;227.98;;;87.45;;
54641;SDS011;40536;53.194;5.728;2023-02-15T06:26:58;248.38;;;86.97;;
54641;SDS011;40536;53.194;5.728;2023-02-15T06:29:24;215.35;;;82.50;;
54641;SDS011;40536;53.194;5.728;2023-02-15T06:31:50;273.00;;;95.53;;
54641;SDS011;40536;53.194;5.728;2023-02-15T06:34:15;239.43;;;87.90;;
54641;SDS011;40536;53.194;5.728;2023-02-15T06:36:41;253.45;;;90.30;;
54641;SDS011;40536;53.194;5.728;2023-02-15T06:39:07;275.13;;;97.85;;
54641;SDS011;40536;53.194;5.728;2023-02-15T06:41:32;230.30;;;79.57;;
54641;SDS011;40536;53.194;5.728;2023-02-15T06:44:01;219.20;;;97.78;;
54641;SDS011;40536;53.194;5.728;2023-02-15T06:46:27;272.30;;;92.75;;
54641;SDS011;40536;53.194;5.728;2023-02-15T06:48:52;257.95;;;87.82;;
54641;SDS011;40536;53.194;5.728;2023-02-15T06:51:18;229.45;;;97.22;;
54641;SDS011;40536;53.194;5.728;2023-02-15T06:53:43;177.30;;;79.25;;
54641;SDS011;40536;53.194;5.728;2023-02-15T06:56:09;220.07;;;82.97;;
54641;SDS011;40536;53.194;5.728;2023-02-15T06:58:36;228.30;;;88.65;;
54641;SDS011;40536;53.194;5.728;2023-02-15T07:01:03;277.70;;;86.53;;
54641;SDS011;40536;53.194;5.728;2023-02-15T07:03:29;310.83;;;84.68;;
54641;SDS011;40536;53.194;5.728;2023-02-15T07:05:57;349.02;;;91.45;;
54641;SDS011;40536;53.194;5.728;2023-02-15T07:08:25;367.27;;;93.00;;
54641;SDS011;40536;53.194;5.728;2023-02-15T07:10:52;363.30;;;98.78;;
54641;SDS011;40536;53.194;5.728;2023-02-15T07:13:19;368.30;;;91.88;;
54641;SDS011;40536;53.194;5.728;2023-02-15T07:15:47;301.55;;;94.97;;
54641;SDS011;40536;53.194;5.728;2023-02-15T07:18:13;316.52;;;93.22;;
54641;SDS011;40536;53.194;5.728;2023-02-15T07:20:39;269.13;;;91.82;;
54641;SDS011;40536;53.194;5.728;2023-02-15T07:23:06;226.23;;;81.32;;
54641;SDS011;40536;53.194;5.728;2023-02-15T07:25:33;284.40;;;90.28;;
54641;SDS011;40536;53.194;5.728;2023-02-15T07:27:59;285.25;;;82.63;;
54641;SDS011;40536;53.194;5.728;2023-02-15T07:30:27;236.70;;;77.88;;
54641;SDS011;40536;53.194;5.728;2023-02-15T07:32:59;287.30;;;81.55;;
54641;SDS011;40536;53.194;5.728;2023-02-15T07:35:49;265.48;;;90.72;;
54641;SDS011;40536;53.194;5.728;2023-02-15T07:38:16;327.38;;;89.20;;
54641;SDS011;40536;53.194;5.728;2023-02-15T07:40:43;242.50;;;80.63;;
54641;SDS011;40536;53.194;5.728;2023-02-15T07:43:09;233.75;;;80.40;;
54641;SDS011;40536;53.194;5.728;2023-02-15T07:45:36;187.38;;;78.75;;
54641;SDS011;40536;53.194;5.728;2023-02-15T07:48:02;193.07;;;81.53;;
54641;SDS011;40536;53.194;5.728;2023-02-15T07:50:29;167.95;;;80.95;;
54641;SDS011;40536;53.194;5.728;2023-02-15T07:52:55;128.55;;;73.38;;
54641;SDS011;40536;53.194;5.728;2023-02-15T07:55:20;152.13;;;76.05;;
54641;SDS011;40536;53.194;5.728;2023-02-15T07:57:47;112.40;;;73.53;;
54641;SDS011;40536;53.194;5.728;2023-02-15T08:00:18;118.70;;;74.63;;
54641;SDS011;40536;53.194;5.728;2023-02-15T08:02:48;94.80;;;74.35;;
54641;SDS011;40536;53.194;5.728;2023-02-15T08:05:37;102.40;;;70.57;;
54641;SDS011;40536;53.194;5.728;2023-02-15T08:08:08;87.53;;;69.75;;
54641;SDS011;40536;53.194;5.728;2023-02-15T08:10:56;88.88;;;71.75;;
54641;SDS011;40536;53.194;5.728;2023-02-15T08:13:42;92.07;;;72.03;;
54641;SDS011;40536;53.194;5.728;2023-02-15T08:16:19;92.20;;;70.55;;
54641;SDS011;40536;53.194;5.728;2023-02-15T08:18:48;88.57;;;69.47;;
54641;SDS011;40536;53.194;5.728;2023-02-15T08:21:14;88.63;;;68.47;;
54641;SDS011;40536;53.194;5.728;2023-02-15T08:23:40;92.47;;;66.53;;
54641;SDS011;40536;53.194;5.728;2023-02-15T08:26:06;91.50;;;66.15;;
54641;SDS011;40536;53.194;5.728;2023-02-15T08:28:31;85.30;;;65.70;;
54641;SDS011;40536;53.194;5.728;2023-02-15T08:31:18;88.00;;;68.75;;
54641;SDS011;40536;53.194;5.728;2023-02-15T08:33:43;81.90;;;63.75;;
54641;SDS011;40536;53.194;5.728;2023-02-15T08:36:14;81.10;;;65.25;;
54641;SDS011;40536;53.194;5.728;2023-02-15T08:38:42;86.45;;;63.40;;
54641;SDS011;40536;53.194;5.728;2023-02-15T08:43:42;86.78;;;62.80;;
54641;SDS011;40536;53.194;5.728;2023-02-15T08:46:09;73.30;;;60.63;;
54641;SDS011;40536;53.194;5.728;2023-02-15T08:48:36;77.55;;;60.35;;
54641;SDS011;40536;53.194;5.728;2023-02-15T08:51:06;79.65;;;62.90;;
54641;SDS011;40536;53.194;5.728;2023-02-15T08:53:37;81.75;;;61.78;;
54641;SDS011;40536;53.194;5.728;2023-02-15T08:56:04;77.38;;;62.38;;
54641;SDS011;40536;53.194;5.728;2023-02-15T08:58:30;85.40;;;62.72;;
54641;SDS011;40536;53.194;5.728;2023-02-15T09:00:56;77.70;;;61.97;;
54641;SDS011;40536;53.194;5.728;2023-02-15T09:03:22;79.70;;;62.28;;
54641;SDS011;40536;53.194;5.728;2023-02-15T09:05:48;68.82;;;55.42;;
54641;SDS011;40536;53.194;5.728;2023-02-15T09:08:14;77.10;;;57.08;;
54641;SDS011;40536;53.194;5.728;2023-02-15T09:10:40;74.97;;;56.38;;
54641;SDS011;40536;53.194;5.728;2023-02-15T09:13:05;73.15;;;55.13;;
54641;SDS011;40536;53.194;5.728;2023-02-15T09:15:31;76.07;;;57.25;;
54641;SDS011;40536;53.194;5.728;2023-02-15T09:17:57;81.32;;;57.72;;
54641;SDS011;40536;53.194;5.728;2023-02-15T09:20:26;76.57;;;61.85;;
54641;SDS011;40536;53.194;5.728;2023-02-15T09:22:53;79.65;;;61.05;;
54641;SDS011;40536;53.194;5.728;2023-02-15T09:25:19;80.97;;;63.10;;
54641;SDS011;40536;53.194;5.728;2023-02-15T09:27:45;89.15;;;70.05;;
54641;SDS011;40536;53.194;5.728;2023-02-15T09:30:11;80.18;;;62.08;;
54641;SDS011;40536;53.194;5.728;2023-02-15T09:32:37;83.93;;;60.28;;
54641;SDS011;40536;53.194;5.728;2023-02-15T09:35:03;78.90;;;60.28;;
54641;SDS011;40536;53.194;5.728;2023-02-15T09:37:30;75.95;;;56.70;;
54641;SDS011;40536;53.194;5.728;2023-02-15T09:39:56;74.30;;;55.15;;
54641;SDS011;40536;53.194;5.728;2023-02-15T09:45:26;78.53;;;56.00;;
54641;SDS011;40536;53.194;5.728;2023-02-15T09:50:59;80.18;;;56.42;;
54641;SDS011;40536;53.194;5.728;2023-02-15T09:53:37;78.13;;;56.08;;
54641;SDS011;40536;53.194;5.728;2023-02-15T09:56:28;81.53;;;57.55;;
54641;SDS011;40536;53.194;5.728;2023-02-15T10:02:23;74.97;;;52.88;;
54641;SDS011;40536;53.194;5.728;2023-02-15T10:08:18;78.50;;;50.35;;
54641;SDS011;40536;53.194;5.728;2023-02-15T10:19:21;69.78;;;48.47;;
54641;SDS011;40536;53.194;5.728;2023-02-15T10:25:14;71.22;;;44.75;;
54641;SDS011;40536;53.194;5.728;2023-02-15T10:28:08;61.53;;;43.38;;
54641;SDS011;40536;53.194;5.728;2023-02-15T10:30:50;62.85;;;43.90;;
54641;SDS011;40536;53.194;5.728;2023-02-15T10:33:39;63.10;;;45.47;;
54641;SDS011;40536;53.194;5.728;2023-02-15T10:36:23;68.55;;;45.30;;
54641;SDS011;40536;53.194;5.728;2023-02-15T10:47:49;58.80;;;36.25;;
54641;SDS011;40536;53.194;5.728;2023-02-15T10:56:15;55.13;;;35.53;;
54641;SDS011;40536;53.194;5.728;2023-02-15T11:01:32;51.00;;;37.05;;
54641;SDS011;40536;53.194;5.728;2023-02-15T11:04:08;48.83;;;36.75;;
54641;SDS011;40536;53.194;5.728;2023-02-15T11:06:54;49.45;;;37.72;;
54641;SDS011;40536;53.194;5.728;2023-02-15T11:09:25;51.38;;;38.17;;
54641;SDS011;40536;53.194;5.728;2023-02-15T11:11:58;49.97;;;36.00;;
54641;SDS011;40536;53.194;5.728;2023-02-15T11:16:55;52.65;;;38.45;;
54641;SDS011;40536;53.194;5.728;2023-02-15T11:20:15;50.67;;;38.65;;
54641;SDS011;40536;53.194;5.728;2023-02-15T11:22:17;48.80;;;37.45;;
54641;SDS011;40536;53.194;5.728;2023-02-15T11:24:43;62.22;;;48.08;;
54641;SDS011;40536;53.194;5.728;2023-02-15T11:32:52;52.75;;;43.95;;
54641;SDS011;40536;53.194;5.728;2023-02-15T11:35:27;53.20;;;43.85;;
54641;SDS011;40536;53.194;5.728;2023-02-15T11:40:58;46.30;;;39.33;;
54641;SDS011;40536;53.194;5.728;2023-02-15T11:46:08;56.50;;;41.53;;
54641;SDS011;40536;53.194;5.728;2023-02-15T11:48:37;55.08;;;45.03;;
54641;SDS011;40536;53.194;5.728;2023-02-15T11:51:04;52.78;;;42.20;;
54641;SDS011;40536;53.194;5.728;2023-02-15T11:53:32;51.28;;;38.63;;
54641;SDS011;40536;53.194;5.728;2023-02-15T11:56:00;48.85;;;38.20;;
54641;SDS011;40536;53.194;5.728;2023-02-15T11:58:43;50.80;;;37.05;;
54641;SDS011;40536;53.194;5.728;2023-02-15T12:06:47;54.78;;;36.88;;
54641;SDS011;40536;53.194;5.728;2023-02-15T12:11:42;54.65;;;37.25;;
54641;SDS011;40536;53.194;5.728;2023-02-15T12:14:08;52.13;;;37.15;;
54641;SDS011;40536;53.194;5.728;2023-02-15T12:16:41;51.30;;;36.85;;
54641;SDS011;40536;53.194;5.728;2023-02-15T12:19:17;53.33;;;38.58;;
54641;SDS011;40536;53.194;5.728;2023-02-15T12:21:43;49.38;;;38.22;;
54641;SDS011;40536;53.194;5.728;2023-02-15T12:24:17;52.13;;;38.00;;
54641;SDS011;40536;53.194;5.728;2023-02-15T12:29:26;56.78;;;43.15;;
54641;SDS011;40536;53.194;5.728;2023-02-15T12:31:55;54.75;;;43.80;;
54641;SDS011;40536;53.194;5.728;2023-02-15T12:34:25;54.80;;;45.78;;
54641;SDS011;40536;53.194;5.728;2023-02-15T12:36:55;56.60;;;46.60;;
54641;SDS011;40536;53.194;5.728;2023-02-15T12:39:24;55.78;;;49.65;;
54641;SDS011;40536;53.194;5.728;2023-02-15T12:44:33;61.40;;;53.70;;
54641;SDS011;40536;53.194;5.728;2023-02-15T12:49:31;65.07;;;57.45;;
54641;SDS011;40536;53.194;5.728;2023-02-15T12:52:00;63.95;;;57.20;;
54641;SDS011;40536;53.194;5.728;2023-02-15T12:57:01;62.03;;;54.87;;
54641;SDS011;40536;53.194;5.728;2023-02-15T13:05:07;58.13;;;48.30;;
54641;SDS011;40536;53.194;5.728;2023-02-15T13:07:53;63.90;;;48.58;;
54641;SDS011;40536;53.194;5.728;2023-02-15T13:10:22;60.88;;;45.90;;
54641;SDS011;40536;53.194;5.728;2023-02-15T13:12:49;62.20;;;47.72;;
54641;SDS011;40536;53.194;5.728;2023-02-15T13:15:23;59.10;;;48.88;;
54641;SDS011;40536;53.194;5.728;2023-02-15T13:17:52;66.35;;;52.10;;
54641;SDS011;40536;53.194;5.728;2023-02-15T13:20:20;63.00;;;49.40;;
54641;SDS011;40536;53.194;5.728;2023-02-15T13:22:49;65.30;;;53.70;;
54641;SDS011;40536;53.194;5.728;2023-02-15T13:25:19;62.17;;;49.33;;
54641;SDS011;40536;53.194;5.728;2023-02-15T13:27:48;63.30;;;49.53;;
54641;SDS011;40536;53.194;5.728;2023-02-15T13:30:33;59.47;;;52.67;;
54641;SDS011;40536;53.194;5.728;2023-02-15T13:33:03;63.90;;;51.72;;
54641;SDS011;40536;53.194;5.728;2023-02-15T13:39:03;66.35;;;51.65;;
54641;SDS011;40536;53.194;5.728;2023-02-15T13:41:44;65.05;;;52.70;;
54641;SDS011;40536;53.194;5.728;2023-02-15T13:44:41;62.60;;;52.05;;
54641;SDS011;40536;53.194;5.728;2023-02-15T13:52:42;59.17;;;48.78;;
54641;SDS011;40536;53.194;5.728;2023-02-15T13:58:13;60.15;;;45.13;;
54641;SDS011;40536;53.194;5.728;2023-02-15T14:03:50;58.38;;;44.28;;
54641;SDS011;40536;53.194;5.728;2023-02-15T14:18:12;65.45;;;45.70;;
54641;SDS011;40536;53.194;5.728;2023-02-15T14:27:07;65.72;;;47.33;;
54641;SDS011;40536;53.194;5.728;2023-02-15T14:32:12;65.93;;;53.60;;
54641;SDS011;40536;53.194;5.728;2023-02-15T14:37:11;62.70;;;56.17;;
54641;SDS011;40536;53.194;5.728;2023-02-15T14:39:43;66.97;;;58.50;;
54641;SDS011;40536;53.194;5.728;2023-02-15T14:42:59;66.15;;;53.13;;
54641;SDS011;40536;53.194;5.728;2023-02-15T14:45:55;62.42;;;53.63;;
54641;SDS011;40536;53.194;5.728;2023-02-15T14:49:03;67.20;;;51.08;;
54641;SDS011;40536;53.194;5.728;2023-02-15T14:56:47;61.13;;;49.55;;
54641;SDS011;40536;53.194;5.728;2023-02-15T15:01:58;64.65;;;53.17;;
54641;SDS011;40536;53.194;5.728;2023-02-15T15:04:34;64.80;;;51.78;;
54641;SDS011;40536;53.194;5.728;2023-02-15T15:09:58;100.22;;;91.65;;
54641;SDS011;40536;53.194;5.728;2023-02-15T15:14:54;64.63;;;50.17;;
54641;SDS011;40536;53.194;5.728;2023-02-15T15:19:59;59.88;;;46.97;;
54641;SDS011;40536;53.194;5.728;2023-02-15T15:22:25;59.70;;;46.17;;
54641;SDS011;40536;53.194;5.728;2023-02-15T15:35:23;63.90;;;44.17;;
54641;SDS011;40536;53.194;5.728;2023-02-15T15:37:58;65.28;;;46.47;;
54641;SDS011;40536;53.194;5.728;2023-02-15T15:40:41;58.90;;;43.97;;
54641;SDS011;40536;53.194;5.728;2023-02-15T15:43:24;67.00;;;43.88;;
54641;SDS011;40536;53.194;5.728;2023-02-15T15:49:15;58.13;;;42.35;;
54641;SDS011;40536;53.194;5.728;2023-02-15T15:51:44;61.38;;;43.67;;
54641;SDS011;40536;53.194;5.728;2023-02-15T15:54:19;57.55;;;42.15;;
54641;SDS011;40536;53.194;5.728;2023-02-15T15:56:47;60.90;;;43.60;;
54641;SDS011;40536;53.194;5.728;2023-02-15T15:59:20;63.22;;;45.78;;
54641;SDS011;40536;53.194;5.728;2023-02-15T16:01:50;58.38;;;43.20;;
54641;SDS011;40536;53.194;5.728;2023-02-15T16:04:22;58.38;;;42.70;;
54641;SDS011;40536;53.194;5.728;2023-02-15T16:06:50;63.17;;;42.08;;
54641;SDS011;40536;53.194;5.728;2023-02-15T16:09:18;56.42;;;39.42;;
54641;SDS011;40536;53.194;5.728;2023-02-15T16:11:52;58.88;;;39.55;;
54641;SDS011;40536;53.194;5.728;2023-02-15T16:14:24;61.00;;;40.95;;
54641;SDS011;40536;53.194;5.728;2023-02-15T16:16:54;55.42;;;40.17;;
54641;SDS011;40536;53.194;5.728;2023-02-15T16:19:24;55.70;;;39.47;;
54641;SDS011;40536;53.194;5.728;2023-02-15T16:22:02;62.83;;;37.50;;
54641;SDS011;40536;53.194;5.728;2023-02-15T16:24:33;57.58;;;39.05;;
54641;SDS011;40536;53.194;5.728;2023-02-15T16:27:24;61.90;;;39.80;;
54641;SDS011;40536;53.194;5.728;2023-02-15T16:30:22;60.78;;;42.30;;
54641;SDS011;40536;53.194;5.728;2023-02-15T16:32:53;64.47;;;43.60;;
54641;SDS011;40536;53.194;5.728;2023-02-15T16:35:29;61.88;;;40.55;;
54641;SDS011;40536;53.194;5.728;2023-02-15T16:37:55;63.85;;;42.97;;
54641;SDS011;40536;53.194;5.728;2023-02-15T16:42:53;64.97;;;42.42;;
54641;SDS011;40536;53.194;5.728;2023-02-15T16:45:23;65.20;;;44.05;;
54641;SDS011;40536;53.194;5.728;2023-02-15T16:47:52;68.68;;;44.75;;
54641;SDS011;40536;53.194;5.728;2023-02-15T16:50:30;65.80;;;44.08;;
54641;SDS011;40536;53.194;5.728;2023-02-15T16:52:59;72.55;;;45.78;;
54641;SDS011;40536;53.194;5.728;2023-02-15T16:55:26;78.03;;;48.13;;
54641;SDS011;40536;53.194;5.728;2023-02-15T16:57:57;72.78;;;50.03;;
54641;SDS011;40536;53.194;5.728;2023-02-15T17:00:28;68.15;;;48.83;;
54641;SDS011;40536;53.194;5.728;2023-02-15T17:03:02;75.13;;;52.42;;
54641;SDS011;40536;53.194;5.728;2023-02-15T17:05:46;75.53;;;53.25;;
54641;SDS011;40536;53.194;5.728;2023-02-15T17:08:14;81.00;;;53.50;;
54641;SDS011;40536;53.194;5.728;2023-02-15T17:10:41;79.22;;;53.47;;
54641;SDS011;40536;53.194;5.728;2023-02-15T17:13:15;84.28;;;57.35;;
54641;SDS011;40536;53.194;5.728;2023-02-15T17:15:43;79.18;;;56.70;;
54641;SDS011;40536;53.194;5.728;2023-02-15T17:18:30;83.22;;;56.88;;
54641;SDS011;40536;53.194;5.728;2023-02-15T17:21:10;83.20;;;57.30;;
54641;SDS011;40536;53.194;5.728;2023-02-15T17:26:12;89.55;;;56.90;;
54641;SDS011;40536;53.194;5.728;2023-02-15T17:28:45;88.18;;;59.83;;
54641;SDS011;40536;53.194;5.728;2023-02-15T17:33:41;88.80;;;58.30;;
54641;SDS011;40536;53.194;5.728;2023-02-15T17:36:14;85.00;;;56.67;;
54641;SDS011;40536;53.194;5.728;2023-02-15T17:39:35;80.95;;;52.78;;
54641;SDS011;40536;53.194;5.728;2023-02-15T17:41:45;92.47;;;52.88;;
54641;SDS011;40536;53.194;5.728;2023-02-15T17:44:12;89.57;;;54.88;;
54641;SDS011;40536;53.194;5.728;2023-02-15T17:46:40;89.43;;;53.15;;